createdAt,value
2022-10-23T00:01:19.721Z,100860.53
2022-10-23T00:03:47.247Z,100853.31
2022-10-23T00:06:14.688Z,100854.16
2022-10-23T00:08:41.353Z,100853.31
2022-10-23T00:11:13.009Z,100849.47
2022-10-23T00:13:40.075Z,100842.50
2022-10-23T00:16:07.529Z,100846.13
2022-10-23T00:18:34.192Z,100846.31
2022-10-23T00:21:01.643Z,100842.31
2022-10-23T00:23:28.155Z,100841.09
2022-10-23T00:25:54.581Z,100837.09
2022-10-23T00:28:21.051Z,100842.88
2022-10-23T00:30:47.490Z,100823.34
2022-10-23T00:33:13.917Z,100819.34
2022-10-23T00:35:41.277Z,100814.94
2022-10-23T00:38:08.909Z,100820.44
2022-10-23T00:40:36.351Z,100815.34
2022-10-23T00:43:03.828Z,100816.66
2022-10-23T00:45:33.380Z,100814.56
2022-10-23T00:48:01.722Z,100814.56
2022-10-23T00:50:31.339Z,100816.72
2022-10-23T00:53:00.719Z,100816.09
2022-10-23T00:55:28.346Z,100809.75
2022-10-23T00:57:55.075Z,100816.09
2022-10-23T01:00:27.570Z,100815.50
2022-10-23T01:02:54.997Z,100826.53
2022-10-23T01:05:36.643Z,100833.13
2022-10-23T01:08:12.753Z,100826.13
2022-10-23T01:10:52.625Z,100826.34
2022-10-23T01:13:37.166Z,100826.81
2022-10-23T01:16:17.882Z,100837.00
2022-10-23T01:19:03.929Z,100825.13
2022-10-23T01:21:58.929Z,100827.06
2022-10-23T01:24:49.965Z,100818.13
2022-10-23T01:27:19.036Z,100807.78
2022-10-23T01:30:11.731Z,100814.38
2022-10-23T01:33:04.285Z,100815.66
2022-10-23T01:35:46.812Z,100818.66
2022-10-23T01:38:27.587Z,100816.09
2022-10-23T01:41:19.929Z,100818.25
2022-10-23T01:44:10.840Z,100807.22
2022-10-23T01:46:37.543Z,100801.91
2022-10-23T01:49:07.862Z,100794.69
2022-10-23T01:51:37.854Z,100794.69
2022-10-23T01:54:07.641Z,100796.59
2022-10-23T01:56:36.148Z,100801.31
2022-10-23T01:59:08.562Z,100790.28
2022-10-23T02:01:38.460Z,100785.19
2022-10-23T02:04:10.230Z,100785.41
2022-10-23T02:06:36.657Z,100771.22
2022-10-23T02:09:04.440Z,100771.22
2022-10-23T02:11:37.177Z,100771.44
2022-10-23T02:14:06.629Z,100765.06
2022-10-23T02:16:45.792Z,100762.56
2022-10-23T02:19:17.991Z,100750.44
2022-10-23T02:22:06.684Z,100740.72
2022-10-23T02:24:39.272Z,100744.09
2022-10-23T02:27:13.764Z,100745.56
2022-10-23T02:29:45.555Z,100748.06
2022-10-23T02:32:14.509Z,100745.31
2022-10-23T02:34:41.145Z,100742.56
2022-10-23T02:37:07.653Z,100759.75
2022-10-23T02:39:34.229Z,100753.16
2022-10-23T02:42:11.266Z,100751.84
2022-10-23T02:45:08.526Z,100738.91
2022-10-23T02:47:41.517Z,100744.81
2022-10-23T02:50:23.714Z,100742.66
2022-10-23T02:53:02.549Z,100746.06
2022-10-23T02:55:44.539Z,100724.59
2022-10-23T02:58:29.598Z,100708.44
2022-10-23T03:01:03.610Z,100703.16
2022-10-23T03:03:35.257Z,100698.03
2022-10-23T03:06:01.853Z,100699.69
2022-10-23T03:08:28.287Z,100706.91
2022-10-23T03:10:54.758Z,100695.88
2022-10-23T03:13:21.264Z,100700.78
2022-10-23T03:15:47.683Z,100695.25
2022-10-23T03:18:14.068Z,100704.38
2022-10-23T03:20:40.496Z,100701.38
2022-10-23T03:23:06.964Z,100689.06
2022-10-23T03:25:33.371Z,100699.19
2022-10-23T03:28:00.253Z,100708.44
2022-10-23T03:30:26.666Z,100711.97
2022-10-23T03:32:53.073Z,100696.91
2022-10-23T03:35:19.510Z,100685.38
2022-10-23T03:37:46.002Z,100700.16
2022-10-23T03:40:12.517Z,100686.53
2022-10-23T03:42:38.989Z,100697.75
2022-10-23T03:45:05.884Z,100689.00
2022-10-23T03:47:35.147Z,100698.72
2022-10-23T03:50:01.864Z,100700.41
2022-10-23T03:52:28.276Z,100693.19
2022-10-23T03:54:54.670Z,100685.97
2022-10-23T03:57:21.125Z,100683.94
2022-10-23T03:59:47.556Z,100682.44
2022-10-23T04:02:13.991Z,100684.84
2022-10-23T04:04:40.470Z,100696.13
2022-10-23T04:07:06.846Z,100693.75
2022-10-23T04:09:33.273Z,100689.91
2022-10-23T04:11:59.709Z,100683.94
2022-10-23T04:14:26.317Z,100686.22
2022-10-23T04:16:52.780Z,100681.31
2022-10-23T04:19:19.245Z,100678.91
2022-10-23T04:21:45.682Z,100672.31
2022-10-23T04:24:12.081Z,100670.19
2022-10-23T04:26:38.509Z,100682.06
2022-10-23T04:29:05.098Z,100674.63
2022-10-23T04:31:31.516Z,100669.34
2022-10-23T04:33:57.989Z,100674.50
2022-10-23T04:36:24.443Z,100669.66
2022-10-23T04:38:50.880Z,100677.56
2022-10-23T04:41:17.396Z,100675.47
2022-10-23T04:43:43.832Z,100676.34
2022-10-23T04:46:10.333Z,100673.78
2022-10-23T04:48:36.729Z,100669.59
2022-10-23T04:51:05.791Z,100671.50
2022-10-23T04:53:32.846Z,100668.72
2022-10-23T04:56:00.445Z,100663.84
2022-10-23T04:58:28.574Z,100664.44
2022-10-23T05:00:55.731Z,100651.25
2022-10-23T05:03:23.637Z,100645.28
2022-10-23T05:05:53.322Z,100638.66
2022-10-23T05:08:19.893Z,100636.13
2022-10-23T05:10:47.859Z,100631.94
2022-10-23T05:13:14.420Z,100625.41
2022-10-23T05:15:40.973Z,100616.75
2022-10-23T05:18:21.933Z,100614.66
2022-10-23T05:20:51.792Z,100626.41
2022-10-23T05:23:22.432Z,100618.00
2022-10-23T05:25:48.869Z,100625.88
2022-10-23T05:28:15.509Z,100638.84
2022-10-23T05:30:42.669Z,100629.50
2022-10-23T05:33:09.910Z,100629.50
2022-10-23T05:35:36.955Z,100625.22
2022-10-23T05:38:04.542Z,100623.88
2022-10-23T05:40:31.052Z,100618.59
2022-10-23T05:42:57.493Z,100624.34
2022-10-23T05:45:23.942Z,100610.78
2022-10-23T05:47:50.489Z,100604.03
2022-10-23T05:50:17.359Z,100609.81
2022-10-23T05:52:46.330Z,100613.84
2022-10-23T05:55:12.762Z,100610.94
2022-10-23T05:57:39.189Z,100613.94
2022-10-23T06:00:06.240Z,100609.34
2022-10-23T06:02:33.778Z,100604.50
2022-10-23T06:05:00.334Z,100603.06
2022-10-23T06:07:31.177Z,100602.44
2022-10-23T06:10:00.299Z,100602.50
2022-10-23T06:12:26.815Z,100600.81
2022-10-23T06:14:53.230Z,100608.50
2022-10-23T06:17:19.669Z,100599.56
2022-10-23T06:19:46.301Z,100600.03
2022-10-23T06:22:13.095Z,100603.88
2022-10-23T06:24:39.487Z,100598.59
2022-10-23T06:27:05.912Z,100610.47
2022-10-23T06:29:32.338Z,100607.72
2022-10-23T06:31:58.773Z,100603.25
2022-10-23T06:34:25.204Z,100619.81
2022-10-23T06:36:51.610Z,100607.72
2022-10-23T06:39:17.979Z,100608.31
2022-10-23T06:41:45.404Z,100614.47
2022-10-23T06:44:11.776Z,100606.78
2022-10-23T06:46:38.156Z,100605.72
2022-10-23T06:49:04.516Z,100607.38
2022-10-23T06:51:30.955Z,100599.75
2022-10-23T06:53:57.402Z,100597.00
2022-10-23T06:56:25.257Z,100592.06
2022-10-23T06:58:51.815Z,100593.75
2022-10-23T07:01:18.374Z,100591.63
2022-10-23T07:03:45.099Z,100576.75
2022-10-23T07:06:11.622Z,100583.50
2022-10-23T07:08:38.369Z,100574.16
2022-10-23T07:11:10.249Z,100573.69
2022-10-23T07:13:38.472Z,100580.44
2022-10-23T07:16:16.432Z,100586.13
2022-10-23T07:18:43.362Z,100582.41
2022-10-23T07:21:09.991Z,100578.72
2022-10-23T07:23:36.440Z,100584.19
2022-10-23T07:26:11.381Z,100580.25
2022-10-23T07:28:37.906Z,100582.06
2022-10-23T07:31:04.548Z,100581.75
2022-10-23T07:33:30.998Z,100577.09
2022-10-23T07:35:57.416Z,100569.59
2022-10-23T07:38:23.973Z,100582.81
2022-10-23T07:40:53.850Z,100570.59
2022-10-23T07:43:21.052Z,100574.09
2022-10-23T07:45:48.895Z,100572.66
2022-10-23T07:48:16.364Z,100576.03
2022-10-23T07:50:42.829Z,100579.56
2022-10-23T07:53:19.221Z,100573.06
2022-10-23T07:55:57.060Z,100578.25
2022-10-23T07:58:24.172Z,100577.78
2022-10-23T08:00:55.850Z,100574.66
2022-10-23T08:03:22.317Z,100579.25
2022-10-23T08:05:48.716Z,100566.59
2022-10-23T08:08:15.129Z,100567.09
2022-10-23T08:10:41.710Z,100576.72
2022-10-23T08:13:11.801Z,100569.72
2022-10-23T08:15:38.229Z,100570.44
2022-10-23T08:18:04.667Z,100563.47
2022-10-23T08:20:31.092Z,100552.84
2022-10-23T08:22:57.538Z,100544.16
2022-10-23T08:25:25.242Z,100548.22
2022-10-23T08:27:52.544Z,100544.47
2022-10-23T08:30:18.979Z,100541.81
2022-10-23T08:32:45.365Z,100541.19
2022-10-23T08:35:11.760Z,100547.19
2022-10-23T08:37:38.194Z,100536.56
2022-10-23T08:40:05.111Z,100539.75
2022-10-23T08:42:36.284Z,100528.88
2022-10-23T08:45:14.229Z,100520.72
2022-10-23T08:47:49.452Z,100514.50
2022-10-23T08:53:13.333Z,100519.47
2022-10-23T08:55:46.647Z,100524.84
2022-10-23T08:58:23.494Z,100517.78
2022-10-23T09:00:51.477Z,100514.84
2022-10-23T09:03:18.579Z,100517.69
2022-10-23T09:05:59.953Z,100510.56
2022-10-23T09:08:48.427Z,100512.25
2022-10-23T09:11:35.710Z,100506.19
2022-10-23T09:14:19.657Z,100500.13
2022-10-23T09:16:49.284Z,100489.38
2022-10-23T09:19:19.193Z,100488.03
2022-10-23T09:21:49.753Z,100484.72
2022-10-23T09:24:18.692Z,100475.91
2022-10-23T09:26:49.701Z,100482.59
2022-10-23T09:29:27.522Z,100482.13
2022-10-23T09:32:01.843Z,100486.63
2022-10-23T09:34:30.942Z,100487.78
2022-10-23T09:37:21.752Z,100469.00
2022-10-23T09:39:48.222Z,100469.53
2022-10-23T09:42:23.891Z,100472.31
2022-10-23T09:44:53.133Z,100460.69
2022-10-23T09:47:22.699Z,100448.47
2022-10-23T09:49:52.173Z,100443.50
2022-10-23T09:52:18.473Z,100441.31
2022-10-23T09:54:54.491Z,100450.22
2022-10-23T09:57:44.012Z,100464.69
2022-10-23T10:00:13.745Z,100477.34
2022-10-23T10:02:57.175Z,100471.25
2022-10-23T10:05:38.319Z,100466.22
2022-10-23T10:08:20.550Z,100477.09
2022-10-23T10:10:54.069Z,100470.75
2022-10-23T10:13:33.218Z,100465.19
2022-10-23T10:16:18.544Z,100469.66
2022-10-23T10:18:57.388Z,100469.41
2022-10-23T10:21:45.369Z,100470.56
2022-10-23T10:24:38.980Z,100458.09
2022-10-23T10:27:34.496Z,100444.28
2022-10-23T10:30:12.675Z,100416.53
2022-10-23T10:32:57.872Z,100413.25
2022-10-23T10:35:42.722Z,100414.03
2022-10-23T10:38:35.622Z,100397.69
2022-10-23T10:41:26.685Z,100398.84
2022-10-23T10:44:04.574Z,100389.41
2022-10-23T10:46:50.495Z,100379.41
2022-10-23T10:49:30.595Z,100390.84
2022-10-23T10:52:21.388Z,100393.31
2022-10-23T10:55:09.209Z,100389.16
2022-10-23T10:57:41.980Z,100391.16
2022-10-23T11:00:20.572Z,100376.41
2022-10-23T11:02:55.174Z,100372.25
2022-10-23T11:05:44.513Z,100375.63
2022-10-23T11:08:14.244Z,100377.34
2022-10-23T11:10:45.565Z,100371.56
2022-10-23T11:13:27.282Z,100377.78
2022-10-23T11:16:00.264Z,100369.00
2022-10-23T11:18:29.628Z,100364.66
2022-10-23T11:21:16.941Z,100353.31
2022-10-23T11:24:41.418Z,100355.03
2022-10-23T11:27:29.974Z,100356.53
2022-10-23T11:30:28.681Z,100351.59
2022-10-23T11:33:18.039Z,100350.84
2022-10-23T11:35:53.170Z,100339.75
2022-10-23T11:38:24.524Z,100335.06
2022-10-23T11:40:54.730Z,100325.66
2022-10-23T11:43:36.808Z,100322.63
2022-10-23T11:46:14.788Z,100310.09
2022-10-23T11:48:43.587Z,100312.91
2022-10-23T11:51:30.716Z,100316.00
2022-10-23T11:54:15.323Z,100319.06
2022-10-23T11:57:10.423Z,100322.41
2022-10-23T11:59:49.134Z,100317.13
2022-10-23T12:02:38.132Z,100324.94
2022-10-23T12:05:06.980Z,100332.19
2022-10-23T12:07:38.001Z,100312.13
2022-10-23T12:10:27.008Z,100299.84
2022-10-23T12:12:58.870Z,100287.22
2022-10-23T12:15:26.186Z,100280.72
2022-10-23T12:18:08.326Z,100282.28
2022-10-23T12:20:49.954Z,100269.31
2022-10-23T12:23:16.397Z,100267.53
2022-10-23T12:25:55.381Z,100257.38
2022-10-23T12:28:39.606Z,100244.13
2022-10-23T12:31:14.484Z,100238.22
2022-10-23T12:34:00.569Z,100229.22
2022-10-23T12:36:48.293Z,100221.28
2022-10-23T12:39:32.423Z,100202.06
2022-10-23T12:42:00.461Z,100205.06
2022-10-23T12:44:27.775Z,100199.34
2022-10-23T12:47:02.495Z,100202.69
2022-10-23T12:49:35.408Z,100209.31
2022-10-23T12:52:05.221Z,100210.00
2022-10-23T12:54:33.592Z,100203.72
2022-10-23T12:57:00.065Z,100195.28
2022-10-23T12:59:33.209Z,100190.25
2022-10-23T13:02:00.153Z,100187.53
2022-10-23T13:04:33.303Z,100186.91
2022-10-23T13:07:02.242Z,100173.44
2022-10-23T13:09:41.873Z,100171.84
2022-10-23T13:12:15.575Z,100163.41
2022-10-23T13:14:44.575Z,100151.69
2022-10-23T13:17:12.141Z,100158.34
2022-10-23T13:19:38.783Z,100155.53
2022-10-23T13:22:24.505Z,100135.22
2022-10-23T13:24:50.913Z,100125.88
2022-10-23T13:27:33.130Z,100124.97
2022-10-23T13:29:59.582Z,100128.75
2022-10-23T13:32:30.084Z,100118.09
2022-10-23T13:35:04.367Z,100128.13
2022-10-23T13:37:36.913Z,100127.34
2022-10-23T13:40:09.628Z,100119.19
2022-10-23T13:42:36.453Z,100119.72
2022-10-23T13:45:02.888Z,100124.19
2022-10-23T13:47:29.360Z,100116.09
2022-10-23T13:49:55.712Z,100105.25
2022-10-23T13:52:23.717Z,100104.94
2022-10-23T13:54:50.641Z,100089.06
2022-10-23T13:57:17.028Z,100092.28
2022-10-23T13:59:43.493Z,100094.88
2022-10-23T14:02:23.513Z,100093.56
2022-10-23T14:04:50.876Z,100088.72
2022-10-23T14:07:17.737Z,100084.78
2022-10-23T14:09:44.693Z,100084.72
2022-10-23T14:12:12.336Z,100077.19
2022-10-23T14:17:05.075Z,100082.53
2022-10-23T14:19:33.845Z,100075.56
2022-10-23T14:22:00.293Z,100068.63
2022-10-23T14:24:26.677Z,100081.53
2022-10-23T14:26:53.105Z,100068.81
2022-10-23T14:29:23.897Z,100075.03
2022-10-23T14:31:51.121Z,100070.63
2022-10-23T14:34:17.547Z,100063.19
2022-10-23T14:36:56.491Z,100060.53
2022-10-23T14:39:23.428Z,100049.47
2022-10-23T14:41:49.842Z,100059.88
2022-10-23T14:44:16.217Z,100046.00
2022-10-23T14:46:42.666Z,100053.91
2022-10-23T14:49:09.029Z,100050.03
2022-10-23T14:51:35.435Z,100055.13
2022-10-23T14:54:04.526Z,100051.78
2022-10-23T14:56:33.536Z,100041.53
2022-10-23T14:59:03.644Z,100038.47
2022-10-23T15:01:35.647Z,100040.72
2022-10-23T15:04:02.385Z,100033.78
2022-10-23T15:06:28.821Z,100039.66
2022-10-23T15:08:55.567Z,100038.56
2022-10-23T15:11:23.482Z,100018.50
2022-10-23T15:13:50.135Z,100018.00
2022-10-23T15:16:16.880Z,100020.56
2022-10-23T15:18:43.565Z,100026.19
2022-10-23T15:21:10.177Z,100027.63
2022-10-23T15:23:38.959Z,100033.75
2022-10-23T15:26:11.469Z,100025.69
2022-10-23T15:28:38.484Z,100015.41
2022-10-23T15:31:05.940Z,100010.41
2022-10-23T15:33:32.392Z,100012.09
2022-10-23T15:35:58.810Z,99999.25
2022-10-23T15:38:26.078Z,99996.44
2022-10-23T15:40:58.893Z,99985.00
2022-10-23T15:43:25.389Z,99991.69
2022-10-23T15:45:51.868Z,99994.81
2022-10-23T15:48:18.432Z,99990.34
2022-10-23T15:50:44.792Z,99991.47
2022-10-23T15:53:11.224Z,99994.25
2022-10-23T15:55:37.671Z,99967.75
2022-10-23T15:58:05.495Z,99980.38
2022-10-23T16:00:35.912Z,99979.28
2022-10-23T16:03:02.605Z,99992.69
2022-10-23T16:05:29.053Z,99990.47
2022-10-23T16:07:55.457Z,99980.44
2022-10-23T16:10:22.804Z,99982.13
2022-10-23T16:12:49.184Z,99976.88
2022-10-23T16:15:15.689Z,99990.25
2022-10-23T16:17:42.413Z,100005.91
2022-10-23T16:20:11.867Z,100000.09
2022-10-23T16:22:41.337Z,99994.56
2022-10-23T16:25:10.664Z,99993.47
2022-10-23T16:27:37.073Z,99999.09
2022-10-23T16:30:06.179Z,100001.88
2022-10-23T16:32:32.609Z,99987.94
2022-10-23T16:34:58.984Z,100001.34
2022-10-23T16:37:25.469Z,100016.41
2022-10-23T16:39:51.921Z,100025.34
2022-10-23T16:44:49.595Z,100038.78
2022-10-23T16:47:16.118Z,100056.91
2022-10-23T16:49:42.678Z,100063.06
2022-10-23T16:52:09.779Z,100084.84
2022-10-23T16:54:36.206Z,100093.78
2022-10-23T16:57:02.664Z,100084.03
2022-10-23T16:59:29.025Z,100099.66
2022-10-23T17:01:55.560Z,100106.91
2022-10-23T17:04:22.093Z,100125.38
2022-10-23T17:06:48.533Z,100122.28
2022-10-23T17:09:15.021Z,100135.91
2022-10-23T17:11:44.172Z,100138.75
2022-10-23T17:14:17.408Z,100158.25
2022-10-23T17:16:51.592Z,100193.38
2022-10-23T17:19:40.102Z,100223.50
2022-10-23T17:22:10.604Z,100309.59
2022-10-23T17:24:41.360Z,100316.84
2022-10-23T17:27:08.234Z,100240.78
2022-10-23T17:29:35.270Z,100204.31
2022-10-23T17:32:01.926Z,100177.56
2022-10-23T17:34:28.340Z,100141.06
2022-10-23T17:36:55.688Z,100138.28
2022-10-23T17:39:26.181Z,100112.41
2022-10-23T17:41:53.524Z,100099.03
2022-10-23T17:44:20.153Z,100099.56
2022-10-23T17:46:52.130Z,100124.91
2022-10-23T17:49:18.507Z,100133.22
2022-10-23T17:51:44.953Z,100132.94
2022-10-23T17:54:12.843Z,100124.03
2022-10-23T17:56:40.687Z,100096.19
2022-10-23T17:59:12.146Z,100104.25
2022-10-23T18:01:39.280Z,100094.25
2022-10-23T18:04:07.671Z,100088.41
2022-10-23T18:06:46.401Z,100063.09
2022-10-23T18:09:13.086Z,100080.31
2022-10-23T18:11:45.373Z,100110.91
2022-10-23T18:14:15.657Z,100098.94
2022-10-23T18:16:42.220Z,100101.19
2022-10-23T18:19:08.705Z,100109.22
2022-10-23T18:21:35.861Z,100105.06
2022-10-23T18:24:03.031Z,100103.38
2022-10-23T18:26:32.223Z,100109.22
2022-10-23T18:28:59.378Z,100109.22
2022-10-23T18:31:29.570Z,100122.88
2022-10-23T18:33:57.967Z,100129.28
2022-10-23T18:36:28.520Z,100138.16
2022-10-23T18:41:23.565Z,100144.28
2022-10-23T18:43:51.660Z,100139.28
2022-10-23T18:46:19.669Z,100132.59
2022-10-23T18:48:47.604Z,100122.00
2022-10-23T18:51:17.068Z,100109.75
2022-10-23T18:53:46.645Z,100112.50
2022-10-23T18:56:14.848Z,100123.34
2022-10-23T18:58:41.366Z,100117.50
2022-10-23T19:01:07.845Z,100103.06
2022-10-23T19:03:34.349Z,100107.78
2022-10-23T19:06:00.762Z,100124.44
2022-10-23T19:08:27.138Z,100132.22
2022-10-23T19:10:54.552Z,100124.16
2022-10-23T19:13:21.730Z,100108.03
2022-10-23T19:15:48.149Z,100109.97
2022-10-23T19:18:14.594Z,100101.91
2022-10-23T19:20:42.439Z,100104.69
2022-10-23T19:23:12.736Z,100112.47
2022-10-23T19:25:40.677Z,100106.59
2022-10-23T19:28:07.176Z,100107.13
2022-10-23T19:30:34.553Z,100107.66
2022-10-23T19:33:01.000Z,100099.59
2022-10-23T19:35:27.437Z,100112.91
2022-10-23T19:37:53.796Z,100137.38
2022-10-23T19:40:20.412Z,100085.97
2022-10-23T19:42:47.047Z,100105.13
2022-10-23T19:45:14.888Z,100119.22
2022-10-23T19:47:42.350Z,100115.09
2022-10-23T19:50:09.691Z,100147.84
2022-10-23T19:52:36.503Z,100084.53
2022-10-23T19:55:03.719Z,100105.09
2022-10-23T19:57:33.713Z,100130.63
2022-10-23T20:00:01.133Z,100147.28
2022-10-23T20:02:28.317Z,100134.81
2022-10-23T20:04:54.791Z,100145.13
2022-10-23T20:07:21.582Z,100129.53
2022-10-23T20:09:48.652Z,100135.94
2022-10-23T20:12:15.045Z,100136.78
2022-10-23T20:14:41.542Z,100154.28
2022-10-23T20:17:08.248Z,100159.00
2022-10-23T20:19:34.983Z,100146.78
2022-10-23T20:22:01.477Z,100152.34
2022-10-23T20:24:27.960Z,100142.88
2022-10-23T20:26:55.625Z,100149.00
2022-10-23T20:29:22.673Z,100149.25
2022-10-23T20:31:49.076Z,100144.53
2022-10-23T20:34:15.482Z,100158.94
2022-10-23T20:36:46.683Z,100147.84
2022-10-23T20:39:16.706Z,100160.91
2022-10-23T20:41:45.009Z,100158.94
2022-10-23T20:46:47.183Z,100170.38
2022-10-23T20:49:14.559Z,100170.06
2022-10-23T20:51:41.872Z,100168.13
2022-10-23T20:54:08.345Z,100166.75
2022-10-23T20:56:37.113Z,100174.25
2022-10-23T20:59:09.862Z,100170.06
2022-10-23T21:01:40.023Z,100183.41
2022-10-23T21:04:06.865Z,100172.84
2022-10-23T21:06:45.708Z,100178.66
2022-10-23T21:09:18.338Z,100193.34
2022-10-23T21:11:44.784Z,100192.50
2022-10-23T21:14:11.742Z,100201.97
2022-10-23T21:16:46.374Z,100200.28
2022-10-23T21:19:15.737Z,100190.53
2022-10-23T21:21:43.194Z,100198.03
2022-10-23T21:24:14.065Z,100208.84
2022-10-23T21:26:40.515Z,100206.38
2022-10-23T21:29:18.077Z,100210.25
2022-10-23T21:31:45.460Z,100217.19
2022-10-23T21:34:12.073Z,100211.63
2022-10-23T21:36:53.916Z,100209.94
2022-10-23T21:39:25.150Z,100215.75
2022-10-23T21:41:51.525Z,100224.34
2022-10-23T21:44:17.995Z,100228.47
2022-10-23T21:46:44.422Z,100227.63
2022-10-23T21:49:11.674Z,100231.50
2022-10-23T21:51:38.821Z,100230.09
2022-10-23T21:54:07.990Z,100220.38
2022-10-23T21:56:42.316Z,100220.06
2022-10-23T21:59:12.772Z,100228.34
2022-10-23T22:01:40.791Z,100229.97
2022-10-23T22:04:07.463Z,100229.91
2022-10-23T22:06:33.865Z,100231.81
2022-10-23T22:09:00.415Z,100225.34
2022-10-23T22:11:27.684Z,100231.72
2022-10-23T22:13:54.591Z,100226.94
2022-10-23T22:16:21.125Z,100223.84
2022-10-23T22:18:48.409Z,100222.69
2022-10-23T22:21:20.853Z,100218.22
2022-10-23T22:23:51.055Z,100220.16
2022-10-23T22:26:24.952Z,100225.69
2022-10-23T22:28:53.438Z,100224.84
2022-10-23T22:31:25.836Z,100237.63
2022-10-23T22:33:53.223Z,100224.03
2022-10-23T22:36:20.276Z,100224.84
2022-10-23T22:38:47.445Z,100235.38
2022-10-23T22:41:14.358Z,100223.38
2022-10-23T22:43:40.732Z,100226.97
2022-10-23T22:46:15.645Z,100224.72
2022-10-23T22:48:42.665Z,100225.50
2022-10-23T22:51:11.612Z,100228.50
2022-10-23T22:53:38.089Z,100232.91
2022-10-23T22:56:09.242Z,100227.88
2022-10-23T22:58:36.634Z,100224.22
2022-10-23T23:01:08.119Z,100230.03
2022-10-23T23:03:35.996Z,100219.44
2022-10-23T23:06:03.555Z,100215.53
2022-10-23T23:08:30.101Z,100212.44
2022-10-23T23:10:57.492Z,100215.97
2022-10-23T23:13:24.534Z,100212.03
2022-10-23T23:15:51.177Z,100211.47
2022-10-23T23:18:17.590Z,100213.66
2022-10-23T23:20:44.001Z,100199.22
2022-10-23T23:23:11.807Z,100216.19
2022-10-23T23:25:46.243Z,100207.84
2022-10-23T23:28:16.257Z,100215.34
2022-10-23T23:30:43.127Z,100215.91
2022-10-23T23:33:11.234Z,100213.97
2022-10-23T23:35:45.515Z,100210.34
2022-10-23T23:38:12.738Z,100192.31
2022-10-23T23:40:40.203Z,100192.59
2022-10-23T23:43:07.048Z,100192.28
2022-10-23T23:45:33.808Z,100190.59
2022-10-23T23:48:00.245Z,100200.84
2022-10-23T23:50:27.960Z,100203.84
2022-10-23T23:52:54.411Z,100188.34
2022-10-23T23:55:20.821Z,100200.50
2022-10-23T23:57:47.539Z,100195.81
